Air Navigation Services of Czech Republic
Airport: LKLN Updated:  25.03.2017 07:06:05  UTC
 METAR LKLN 25.03. 07:00 ...
METAR LKLN 250700Z AUTO VRB03KT CAVOK 04/01 Q1029=